Holden, MO

10:40 PM CDT on August 24, 2016 (GMT -0500)
| | Change Station
Active Advisory: Severe Thunderstorm Watch

Elev -9999 ft 0.00 °N, 0.00 °E | Updated

Thunderstorm
Thunderstorm
71 °F
Feels Like 71 °F
N
6
Wind Variable Wind from WSW
Gusts 10 mph

Today
High -- | Low -- °F
--% Chance of Precip.
Yesterday
High -- | Low -- °F
Precip. -- in
Pressure 30.04 in
Visibility 1.5 miles
Clouds Scattered Clouds 800 ft
Scattered Clouds 2300 ft
Mostly Cloudy 4800 ft
Dew Point 69 °F
Humidity 92%
Rainfall --
Snow Depth Not available.
6:38 AM 7:57 PM
Waning Gibbous, 50% visible
METAR KRCM 250255Z AUTO 32010G21KT 1 1/2SM +TSRA SCT008 SCT023 BKN048 20/19 A3004 RMK AO2 P0004 LTG DSNT ALQS
Pressure 30.04 in
Visibility 1.5 miles
Clouds Scattered Clouds 800 ft
Scattered Clouds 2300 ft
Mostly Cloudy 4800 ft
Dew Point 69 °F
Humidity 92%
Rainfall --
Snow Depth Not available.
6:38 AM 7:57 PM
Waning Gibbous, 50% visible
METAR KRCM 250255Z AUTO 32010G21KT 1 1/2SM +TSRA SCT008 SCT023 BKN048 20/19 A3004 RMK AO2 P0004 LTG DSNT ALQS

10-Day Weather Forecast

Almanac

Astronomy

Aug. 24, 2016 Rise Set
Actual Time
Civil Twilight
Nautical Twilight
Astronomical Twilight
Moon
Length of Visible Light
Length of Day
Tomorrow will be .
, % of the Moon is Illuminated

Today's Extremes

State Highs State Lows

Community

WunderPhotos

Upload Photos

1,934,789 photos uploaded!

WunderBlog® & News

Nearby

Air Quality

  Air Quality AQ Index Pollutant
Not available.

Snow Depth

Station Depth Elevation

Earthquake Activity

City Distance Mag. Time & Date
Minimum magnitude displayed is 2.5.

Coastal Water Temperatures

Place Temperature

Stations

Nearby Weather Stations

Station Location Temp. Windchill Dew Point Humidity Wind Precip. Elev Updated Type
                   

Watches & Warnings

Severe Thunderstorm Watch
Issued: 10:24 PM CDT Aug. 24, 2016 – National Weather Service

Severe Thunderstorm Watch 455 remains in effect until 1100 PM CDT

MO
. Missouri counties included are

Bates Caldwell Carroll
Cass Clay Cooper
Henry Howard Jackson
Johnson Lafayette Livingston
Pettis ray Saline